Time;durP1;ratioP1;P1;durP2;ratioP2;P2;SDS_P1;SDS_P2;PMS_P1;PMS_P2;Temp;Humidity;BMP_temperature;BMP_pressure;BME280_temperature;BME280_humidity;BME280_pressure;Samples;Min_cycle;Max_cycle;Signal;HPM_P1;HPM_P2
2021/01/19 00:00:14;;;;;;;23.27;9.97;;;;;;;4.15;100.00;100849.19;5029975;28;20047;-68
2021/01/19 00:02:39;;;;;;;25.37;9.67;;;;;;;4.19;100.00;100832.94;5020404;28;20033;-67
2021/01/19 00:05:06;;;;;;;24.87;8.30;;;;;;;4.18;100.00;100838.94;5019290;28;20523;-67
2021/01/19 00:07:31;;;;;;;21.97;8.40;;;;;;;4.17;100.00;100825.94;5028574;28;20040;-68
2021/01/19 00:09:57;;;;;;;16.90;7.23;;;;;;;4.08;100.00;100819.66;5030631;28;20676;-68
2021/01/19 00:12:22;;;;;;;24.13;7.77;;;;;;;4.23;100.00;100820.94;5027126;28;20034;-68
2021/01/19 00:14:48;;;;;;;20.73;8.20;;;;;;;4.20;100.00;100808.78;5028699;28;20056;-68
2021/01/19 00:17:13;;;;;;;22.60;8.90;;;;;;;4.21;100.00;100796.72;5027125;28;20061;-67
2021/01/19 00:19:39;;;;;;;23.87;7.33;;;;;;;4.24;100.00;100809.75;5031148;28;20068;-67
2021/01/19 00:22:04;;;;;;;20.57;8.53;;;;;;;4.26;100.00;100795.16;5025400;28;20025;-68
2021/01/19 00:24:30;;;;;;;25.43;8.60;;;;;;;4.25;100.00;100799.47;5030832;28;20059;-67
2021/01/19 00:26:55;;;;;;;23.13;8.53;;;;;;;4.19;100.00;100808.75;5031272;28;20041;-67
2021/01/19 00:29:21;;;;;;;21.03;8.53;;;;;;;4.23;100.00;100806.28;5029799;28;20021;-67
2021/01/19 00:31:46;;;;;;;21.27;9.27;;;;;;;4.26;100.00;100796.03;5030383;28;20481;-67
2021/01/19 00:34:12;;;;;;;26.60;9.97;;;;;;;4.23;100.00;100792.47;5026508;28;20040;-68
2021/01/19 00:36:37;;;;;;;27.83;9.40;;;;;;;4.24;100.00;100794.22;5031202;28;20105;-67
2021/01/19 00:39:03;;;;;;;26.80;10.23;;;;;;;4.21;100.00;100782.09;5035211;28;20025;-68
2021/01/19 00:41:28;;;;;;;26.83;10.63;;;;;;;4.17;100.00;100774.19;5025714;28;20511;-68
2021/01/19 00:43:54;;;;;;;33.00;9.43;;;;;;;4.21;100.00;100765.69;5026709;28;20037;-67
2021/01/19 00:46:19;;;;;;;23.00;9.97;;;;;;;4.23;100.00;100771.75;5031122;28;20551;-67
2021/01/19 00:48:45;;;;;;;28.93;10.53;;;;;;;4.26;100.00;100764.13;5031199;28;20025;-67
2021/01/19 00:51:10;;;;;;;28.40;9.93;;;;;;;4.22;100.00;100764.84;5029722;28;20025;-68
2021/01/19 00:53:35;;;;;;;28.10;10.40;;;;;;;4.19;100.00;100759.59;5031388;28;20033;-68
2021/01/19 00:56:01;;;;;;;28.47;9.43;;;;;;;4.28;100.00;100754.66;5025363;28;20535;-67
2021/01/19 00:58:26;;;;;;;28.03;10.63;;;;;;;4.25;100.00;100747.72;5031092;28;20033;-67
2021/01/19 01:00:52;;;;;;;24.40;9.33;;;;;;;4.20;100.00;100743.22;5031592;28;20039;-67
2021/01/19 01:03:17;;;;;;;20.63;7.33;;;;;;;4.26;100.00;100746.00;5017080;28;20631;-67
2021/01/19 01:05:43;;;;;;;26.53;10.67;;;;;;;4.17;100.00;100732.78;5015398;28;20037;-68
2021/01/19 01:08:08;;;;;;;30.40;10.70;;;;;;;4.15;100.00;100726.69;5018752;28;20029;-68
2021/01/19 01:10:35;;;;;;;32.53;11.57;;;;;;;4.05;100.00;100728.16;5011709;28;20497;-67
2021/01/19 01:13:00;;;;;;;20.70;8.60;;;;;;;4.06;100.00;100733.38;5012030;28;20733;-68
2021/01/19 01:15:37;;;;;;;26.00;9.50;;;;;;;4.06;100.00;100719.56;5024553;28;20308;-68
2021/01/19 01:18:04;;;;;;;21.97;9.17;;;;;;;4.11;100.00;100718.81;5017863;28;20030;-67
2021/01/19 01:20:29;;;;;;;23.10;9.77;;;;;;;4.16;100.00;100711.22;5011539;28;20285;-68
2021/01/19 01:22:55;;;;;;;24.97;9.30;;;;;;;4.23;100.00;100717.41;5011631;28;20291;-68
2021/01/19 01:25:21;;;;;;;28.53;11.07;;;;;;;4.23;100.00;100712.25;5011877;28;20034;-67
2021/01/19 01:27:47;;;;;;;28.57;9.70;;;;;;;4.29;100.00;100694.31;5013124;28;20034;-68
2021/01/19 01:30:15;;;;;;;25.33;9.70;;;;;;;4.35;100.00;100687.56;5010967;28;20667;-68
2021/01/19 01:32:42;;;;;;;19.43;8.50;;;;;;;4.55;100.00;100689.81;5011385;28;20275;-67
2021/01/19 01:35:09;;;;;;;17.07;6.97;;;;;;;4.57;100.00;100686.41;5020266;28;20291;-67
2021/01/19 01:37:35;;;;;;;24.97;8.97;;;;;;;4.47;100.00;100681.81;5017537;28;20699;-67
2021/01/19 01:40:00;;;;;;;17.80;7.27;;;;;;;4.53;100.00;100671.63;5014290;28;20296;-68
2021/01/19 01:42:26;;;;;;;9.80;4.97;;;;;;;4.60;100.00;100668.38;5011384;28;20021;-67
2021/01/19 01:44:52;;;;;;;20.13;8.67;;;;;;;4.55;100.00;100664.78;5010556;28;20400;-68
2021/01/19 01:47:23;;;;;;;21.37;7.37;;;;;;;4.53;100.00;100661.28;5011436;28;20037;-68
2021/01/19 01:49:50;;;;;;;22.17;9.60;;;;;;;4.49;100.00;100654.28;5011351;28;20032;-68
2021/01/19 01:52:16;;;;;;;21.70;8.17;;;;;;;4.56;100.00;100648.41;5011306;28;20664;-67
2021/01/19 01:54:42;;;;;;;19.07;8.17;;;;;;;4.57;100.00;100644.97;5014305;28;20284;-67
2021/01/19 01:57:08;;;;;;;21.90;8.37;;;;;;;4.49;100.00;100638.75;5030755;28;20260;-68
2021/01/19 01:59:34;;;;;;;13.93;5.93;;;;;;;4.61;100.00;100633.88;5029243;28;20041;-67
2021/01/19 02:02:12;;;;;;;17.40;6.93;;;;;;;4.66;100.00;100637.44;5020450;28;20041;-68
2021/01/19 02:04:37;;;;;;;22.27;7.40;;;;;;;4.65;100.00;100621.88;5011468;28;20026;-67
2021/01/19 02:07:12;;;;;;;11.03;5.43;;;;;;;4.63;100.00;100628.72;5010783;28;20338;-68
2021/01/19 02:09:42;;;;;;;12.53;5.77;;;;;;;4.64;100.00;100618.41;5010567;28;20025;-67
2021/01/19 02:12:16;;;;;;;17.60;7.73;;;;;;;4.66;100.00;100610.66;5015146;28;20330;-67
2021/01/19 02:14:49;;;;;;;16.43;6.50;;;;;;;4.55;100.00;100602.63;5010584;28;20281;-67
2021/01/19 02:17:31;;;;;;;16.33;6.87;;;;;;;4.60;100.00;100585.50;5018647;28;20306;-68
2021/01/19 02:20:31;;;;;;;22.63;8.13;;;;;;;4.55;100.00;100588.81;5016787;28;20303;-67
2021/01/19 02:23:19;;;;;;;18.83;6.97;;;;;;;4.51;100.00;100584.41;5010617;28;20037;-68
2021/01/19 02:26:19;;;;;;;14.20;5.00;;;;;;;4.55;100.00;100575.88;5010685;28;20272;-68
2021/01/19 02:28:56;;;;;;;13.40;6.47;;;;;;;4.61;100.00;100571.72;5010679;28;20292;-67
2021/01/19 02:31:55;;;;;;;22.87;7.43;;;;;;;4.61;100.00;100560.50;5010583;28;20280;-67
2021/01/19 02:34:27;;;;;;;18.73;6.67;;;;;;;4.58;100.00;100550.91;5013625;28;20273;-68
2021/01/19 02:37:07;;;;;;;19.48;7.35;;;;;;;4.60;100.00;100549.25;5025079;28;20281;-67
2021/01/19 02:39:48;;;;;;;19.30;7.90;;;;;;;4.57;100.00;100538.81;5018503;28;20039;-68
2021/01/19 02:42:21;;;;;;;16.73;7.30;;;;;;;4.63;100.00;100538.97;5009575;28;20348;-68
2021/01/19 02:44:49;;;;;;;12.47;5.47;;;;;;;4.66;100.00;100528.66;5012999;28;20272;-68
2021/01/19 02:47:15;;;;;;;16.47;5.83;;;;;;;4.60;100.00;100528.53;5017433;28;20273;-68
2021/01/19 02:49:44;;;;;;;10.23;4.47;;;;;;;4.63;100.00;100526.00;5010006;28;20695;-68
2021/01/19 02:52:13;;;;;;;15.10;6.83;;;;;;;4.65;100.00;100524.31;5009815;28;20683;-68
2021/01/19 02:54:40;;;;;;;14.27;6.07;;;;;;;4.60;100.00;100513.00;5009535;28;20272;-68
2021/01/19 02:57:28;;;;;;;16.53;7.07;;;;;;;4.57;100.00;100501.69;5010353;28;20277;-69
2021/01/19 03:00:06;;;;;;;16.40;7.17;;;;;;;4.54;100.00;100493.84;5016016;28;20707;-68
2021/01/19 03:02:37;;;;;;;16.63;6.30;;;;;;;4.52;100.00;100488.66;5022144;28;20342;-68
2021/01/19 03:05:10;;;;;;;15.57;6.60;;;;;;;4.52;100.00;100477.41;5012517;28;20327;-68
2021/01/19 03:07:42;;;;;;;13.60;5.57;;;;;;;4.58;100.00;100478.41;5010194;28;20277;-67
2021/01/19 03:10:08;;;;;;;16.75;6.70;;;;;;;4.50;100.00;100469.63;5010113;28;20030;-67
2021/01/19 03:12:39;;;;;;;17.17;6.37;;;;;;;4.55;100.00;100478.34;5010055;28;20033;-67
2021/01/19 03:15:05;;;;;;;14.27;7.03;;;;;;;4.52;100.00;100467.94;5009665;28;20343;-68
2021/01/19 03:17:30;;;;;;;16.80;7.37;;;;;;;4.51;100.00;100471.38;5019019;28;20760;-68
2021/01/19 03:19:56;;;;;;;13.90;5.57;;;;;;;4.51;100.00;100461.00;5013934;28;20284;-68
2021/01/19 03:22:21;;;;;;;16.27;5.90;;;;;;;4.54;100.00;100458.47;5014698;28;20066;-68
2021/01/19 03:24:47;;;;;;;14.40;6.13;;;;;;;4.57;100.00;100455.94;5009667;28;20030;-67
2021/01/19 03:27:12;;;;;;;16.67;6.47;;;;;;;4.50;100.00;100443.72;5010140;28;20105;-68
2021/01/19 03:29:39;;;;;;;12.93;6.10;;;;;;;4.48;100.00;100450.56;5010732;28;20084;-67
2021/01/19 03:32:05;;;;;;;12.77;5.17;;;;;;;4.55;100.00;100442.09;5010399;28;20504;-68
2021/01/19 03:34:30;;;;;;;14.90;5.83;;;;;;;4.50;100.00;100425.59;5015293;28;20280;-68
2021/01/19 03:36:56;;;;;;;13.97;5.50;;;;;;;4.53;100.00;100428.25;5014922;28;20037;-67
2021/01/19 03:39:21;;;;;;;18.47;6.20;;;;;;;4.52;100.00;100420.47;5009758;28;20080;-67
2021/01/19 03:41:46;;;;;;;17.73;6.30;;;;;;;4.51;100.00;100406.63;5009919;28;20076;-67
2021/01/19 03:44:12;;;;;;;14.80;5.90;;;;;;;4.51;100.00;100414.41;5009787;28;20121;-67
2021/01/19 03:46:37;;;;;;;13.10;5.43;;;;;;;4.53;100.00;100397.19;5009523;28;20051;-67
2021/01/19 03:49:04;;;;;;;12.80;5.53;;;;;;;4.50;100.00;100399.72;5010030;28;20087;-68
2021/01/19 03:51:30;;;;;;;7.90;3.80;;;;;;;4.57;100.00;100398.09;5026214;28;20033;-67
2021/01/19 03:53:56;;;;;;;12.17;5.43;;;;;;;4.55;100.00;100398.09;5011750;28;20683;-67
2021/01/19 03:56:21;;;;;;;15.97;6.37;;;;;;;4.51;100.00;100388.50;5013767;28;20272;-67
2021/01/19 03:58:47;;;;;;;16.20;6.83;;;;;;;4.49;100.00;100384.16;5016076;28;20449;-67
2021/01/19 04:01:13;;;;;;;15.83;5.83;;;;;;;4.54;100.00;100362.69;5012758;28;20229;-67
2021/01/19 04:03:38;;;;;;;14.90;4.87;;;;;;;4.55;100.00;100364.44;5013206;28;20022;-68
2021/01/19 04:06:08;;;;;;;15.40;6.10;;;;;;;4.50;100.00;100371.25;5027958;28;20044;-67
2021/01/19 04:08:34;;;;;;;13.37;5.20;;;;;;;4.57;100.00;100361.84;5029479;28;20098;-67
2021/01/19 04:11:00;;;;;;;12.40;4.77;;;;;;;4.56;100.00;100363.56;5026682;28;20391;-67
2021/01/19 04:13:26;;;;;;;12.00;4.70;;;;;;;4.61;100.00;100350.75;5012695;28;20323;-67
2021/01/19 04:15:52;;;;;;;7.93;3.87;;;;;;;4.62;100.00;100345.59;5012573;28;20352;-67
2021/01/19 04:18:18;;;;;;;10.47;4.37;;;;;;;4.66;100.00;100341.34;5025016;28;20125;-67
2021/01/19 04:20:43;;;;;;;5.27;2.50;;;;;;;4.73;100.00;100331.97;5011405;28;20903;-67
2021/01/19 04:23:13;;;;;;;11.80;4.17;;;;;;;4.62;100.00;100327.47;5017406;28;20033;-68
2021/01/19 04:25:45;;;;;;;12.50;3.80;;;;;;;4.62;100.00;100317.09;5032896;28;20120;-67
2021/01/19 04:28:11;;;;;;;16.25;4.85;;;;;;;4.61;100.00;100317.94;5012896;28;20280;-67
2021/01/19 04:30:38;;;;;;;9.23;3.37;;;;;;;4.53;100.00;100298.78;5013198;28;20617;-67
2021/01/19 04:33:03;;;;;;;14.30;3.70;;;;;;;4.51;100.00;100297.03;5012766;28;20779;-67
2021/01/19 04:35:29;;;;;;;11.00;3.40;;;;;;;4.60;100.00;100267.00;5012980;28;20280;-67
2021/01/19 04:37:54;;;;;;;8.33;3.20;;;;;;;4.56;100.00;100279.84;5016759;28;20026;-68
2021/01/19 04:40:20;;;;;;;9.10;3.70;;;;;;;4.48;100.00;100263.28;5015209;28;20026;-68
2021/01/19 04:42:46;;;;;;;11.20;2.83;;;;;;;4.50;100.00;100251.28;5013116;28;20032;-68
2021/01/19 04:45:12;;;;;;;9.03;2.97;;;;;;;4.47;100.00;100241.72;5013328;28;20280;-68
2021/01/19 04:47:39;;;;;;;11.50;3.13;;;;;;;4.45;100.00;100242.53;5012918;28;20109;-67
2021/01/19 04:50:10;;;;;;;8.33;2.47;;;;;;;4.47;100.00;100233.94;5016891;28;20022;-68
2021/01/19 04:52:39;;;;;;;9.27;2.43;;;;;;;4.46;100.00;100234.78;5020424;28;20269;-68
2021/01/19 04:55:12;;;;;;;9.47;3.90;;;;;;;4.37;100.00;100224.28;5013259;28;20292;-68
2021/01/19 04:57:42;;;;;;;12.97;4.07;;;;;;;4.36;100.00;100220.84;5022135;28;20654;-68
2021/01/19 05:00:17;;;;;;;7.63;2.70;;;;;;;4.43;100.00;100219.22;5016334;28;20786;-67
2021/01/19 05:03:23;;;;;;;11.73;3.83;;;;;;;4.34;100.00;100213.84;5014789;28;20372;-68
2021/01/19 05:05:59;;;;;;;4.70;2.20;;;;;;;4.42;100.00;100212.28;5011830;28;20281;-67
2021/01/19 05:08:26;;;;;;;8.60;2.40;;;;;;;4.43;100.00;100214.03;5015577;28;20629;-68
2021/01/19 05:10:58;;;;;;;12.27;3.33;;;;;;;4.38;100.00;100205.31;5012008;28;20363;-68
2021/01/19 05:13:55;;;;;;;8.80;2.73;;;;;;;4.33;100.00;100204.34;5011517;28;20288;-68
2021/01/19 05:16:25;;;;;;;6.37;1.77;;;;;;;4.43;100.00;100193.31;5011591;28;20268;-67
2021/01/19 05:18:50;;;;;;;9.30;3.20;;;;;;;4.34;100.00;100178.50;5011871;28;20922;-67
2021/01/19 05:21:16;;;;;;;6.60;2.23;;;;;;;4.44;100.00;100166.59;5017489;28;20372;-68
2021/01/19 05:23:43;;;;;;;7.73;3.10;;;;;;;4.36;100.00;100168.16;5011355;28;20041;-68
2021/01/19 05:26:11;;;;;;;7.40;3.00;;;;;;;4.33;100.00;100160.34;5011665;28;20048;-68
2021/01/19 05:28:43;;;;;;;10.17;2.43;;;;;;;4.28;100.00;100151.66;5011603;28;20756;-68
2021/01/19 05:31:14;;;;;;;6.82;1.90;;;;;;;4.27;100.00;100149.91;5011707;28;20268;-68
2021/01/19 05:33:52;;;;;;;8.57;2.40;;;;;;;4.26;100.00;100127.47;5022541;28;20031;-67
2021/01/19 05:36:19;;;;;;;5.13;1.90;;;;;;;4.30;100.00;100124.06;5014628;28;21044;-68
2021/01/19 05:38:49;;;;;;;6.80;2.83;;;;;;;4.22;100.00;100120.47;5012578;28;20783;-68
2021/01/19 05:41:28;;;;;;;10.57;2.73;;;;;;;4.24;100.00;100113.59;5012937;28;20364;-68
2021/01/19 05:43:54;;;;;;;7.20;2.53;;;;;;;4.22;100.00;100104.94;5011259;28;20280;-68
2021/01/19 05:46:27;;;;;;;4.70;1.93;;;;;;;4.22;100.00;100092.00;5012789;28;20269;-68
2021/01/19 05:48:59;;;;;;;4.80;1.77;;;;;;;4.20;100.00;100101.47;5011788;28;20352;-67
2021/01/19 05:51:27;;;;;;;6.43;2.30;;;;;;;4.16;100.00;100078.97;5011601;28;20280;-68
2021/01/19 05:53:55;;;;;;;5.70;2.13;;;;;;;4.15;100.00;100077.25;5010530;28;20048;-67
2021/01/19 05:56:24;;;;;;;3.93;1.63;;;;;;;4.17;100.00;100083.31;5015533;28;20271;-68
2021/01/19 05:58:50;;;;;;;5.73;1.53;;;;;;;4.18;100.00;100072.13;5022021;28;20288;-67
2021/01/19 06:01:43;;;;;;;10.77;2.10;;;;;;;4.19;100.00;100058.31;5027428;28;20708;-67
2021/01/19 06:04:08;;;;;;;5.00;2.17;;;;;;;4.11;100.00;100056.47;5022173;28;20034;-67
2021/01/19 06:06:34;;;;;;;7.40;3.00;;;;;;;4.17;100.00;100050.53;5018618;28;20030;-67
2021/01/19 06:09:02;;;;;;;6.20;1.73;;;;;;;4.17;100.00;100044.50;5027884;28;20021;-67
2021/01/19 06:11:28;;;;;;;5.63;1.83;;;;;;;4.15;100.00;100035.84;5026202;28;20061;-67
2021/01/19 06:13:55;;;;;;;6.53;2.30;;;;;;;4.06;100.00;100044.31;5010739;28;20302;-67
2021/01/19 06:16:24;;;;;;;9.57;3.47;;;;;;;4.08;100.00;100046.06;5016877;28;20033;-67
2021/01/19 06:18:50;;;;;;;6.10;2.17;;;;;;;4.04;100.00;100044.28;5012739;28;20714;-68
2021/01/19 06:21:35;;;;;;;17.23;2.60;;;;;;;4.07;100.00;100033.13;5011826;28;20744;-68
2021/01/19 06:24:01;;;;;;;7.50;2.50;;;;;;;4.04;100.00;100039.13;5025459;28;20820;-69
2021/01/19 06:26:27;;;;;;;7.13;2.50;;;;;;;4.04;100.00;100036.53;5017539;28;20348;-67
2021/01/19 06:28:52;;;;;;;6.13;2.10;;;;;;;4.00;100.00;100023.53;5010575;28;20384;-67
2021/01/19 06:31:22;;;;;;;4.53;2.07;;;;;;;4.06;100.00;100031.38;5010417;28;20094;-67
2021/01/19 06:33:50;;;;;;;11.80;2.83;;;;;;;4.00;100.00;100037.34;5010569;28;20029;-66
2021/01/19 06:36:18;;;;;;;6.63;2.70;;;;;;;3.95;100.00;100028.59;5023709;28;20330;-70
2021/01/19 06:38:48;;;;;;;8.70;2.63;;;;;;;4.03;100.00;100021.84;5029035;28;20319;-68
2021/01/19 06:41:18;;;;;;;4.60;2.20;;;;;;;4.05;100.00;100030.50;5017579;28;20281;-68
2021/01/19 06:43:57;;;;;;;4.40;1.97;;;;;;;4.03;100.00;100026.16;5017884;28;20268;-68
2021/01/19 06:46:28;;;;;;;7.53;3.40;;;;;;;3.99;100.00;100020.03;5013465;28;20288;-68
2021/01/19 06:49:01;;;;;;;8.07;2.77;;;;;;;4.03;100.00;100014.09;5014386;28;20280;-68
2021/01/19 06:51:27;;;;;;;8.70;2.80;;;;;;;4.03;100.00;100014.09;5013818;28;20276;-68
2021/01/19 06:54:06;;;;;;;6.77;2.77;;;;;;;4.08;100.00;100015.03;5020955;28;20924;-68
2021/01/19 06:56:36;;;;;;;7.83;2.83;;;;;;;4.07;100.00;99992.59;5020566;28;20890;-67
2021/01/19 06:59:08;;;;;;;6.27;2.53;;;;;;;4.06;100.00;100001.22;5008192;28;20295;-67
2021/01/19 07:01:42;;;;;;;5.68;2.97;;;;;;;4.03;100.00;99990.81;5017620;28;20694;-68
2021/01/19 07:04:23;;;;;;;7.33;3.10;;;;;;;4.04;100.00;99982.22;5028569;28;20022;-68
2021/01/19 07:07:04;;;;;;;7.53;3.33;;;;;;;4.02;100.00;99973.56;5011805;28;20297;-68
2021/01/19 07:10:05;;;;;;;6.33;2.27;;;;;;;4.04;100.00;99956.34;5009074;28;20261;-68
2021/01/19 07:12:55;;;;;;;7.13;3.33;;;;;;;4.12;100.00;99948.72;5009538;28;20315;-68
2021/01/19 07:15:41;;;;;;;7.00;2.90;;;;;;;4.07;100.00;99955.50;5009750;28;20271;-67
2021/01/19 07:18:17;;;;;;;11.00;3.67;;;;;;;3.97;100.00;99946.72;5009248;28;20285;-68
2021/01/19 07:21:02;;;;;;;4.13;2.20;;;;;;;4.06;100.00;99941.72;5023360;28;20651;-68
2021/01/19 07:23:45;;;;;;;7.30;2.70;;;;;;;4.07;100.00;99930.50;5029625;28;20270;-68
2021/01/19 07:26:18;;;;;;;5.57;2.67;;;;;;;4.09;100.00;99926.22;5017229;28;20277;-67
2021/01/19 07:28:44;;;;;;;;;;;;;;;4.13;100.00;99918.53;5012729;28;20391;-68
2021/01/19 07:31:11;;;;;;;7.23;2.87;;;;;;;4.02;100.00;99915.78;5013906;28;19913;-68
2021/01/19 07:33:39;;;;;;;9.10;3.00;;;;;;;4.15;100.00;99911.66;5013677;28;20264;-68
2021/01/19 07:36:05;;;;;;;5.67;2.60;;;;;;;4.09;100.00;99910.69;5014161;28;20815;-67
2021/01/19 07:38:30;;;;;;;5.00;2.17;;;;;;;4.10;100.00;99898.63;5013777;28;20384;-68
2021/01/19 07:40:57;;;;;;;4.57;2.23;;;;;;;4.17;100.00;99891.84;5014067;28;20028;-68
2021/01/19 07:43:24;;;;;;;4.47;2.50;;;;;;;4.12;100.00;99902.16;5020319;28;20028;-68
2021/01/19 07:45:54;;;;;;;6.17;3.57;;;;;;;4.13;100.00;99882.31;5023032;28;20687;-68
2021/01/19 07:48:31;;;;;;;6.97;1.83;;;;;;;4.22;100.00;99885.00;5015279;28;20337;-68
2021/01/19 07:50:57;;;;;;;11.10;2.60;;;;;;;4.15;100.00;99878.03;5027104;28;20287;-68
2021/01/19 07:53:23;;;;;;;6.87;2.50;;;;;;;4.20;100.00;99871.19;5030471;28;20315;-68
2021/01/19 07:55:48;;;;;;;4.70;2.20;;;;;;;4.21;100.00;99872.91;5026700;28;20272;-67
2021/01/19 07:58:19;;;;;;;6.37;3.50;;;;;;;4.17;100.00;99856.50;5013581;28;20042;-68
2021/01/19 08:00:57;;;;;;;4.13;2.37;;;;;;;4.24;100.00;99865.19;5013418;28;20029;-68
2021/01/19 08:03:28;;;;;;;5.90;2.27;;;;;;;4.26;100.00;99848.00;5013729;28;20284;-68
2021/01/19 08:05:53;;;;;;;5.63;2.70;;;;;;;4.27;100.00;99854.91;5013385;28;20688;-68
2021/01/19 08:08:19;;;;;;;7.37;2.33;;;;;;;4.28;100.00;99854.06;5013548;28;20356;-68
2021/01/19 08:11:02;;;;;;;5.03;2.57;;;;;;;4.28;100.00;99841.13;5013673;28;20036;-67
2021/01/19 08:13:28;;;;;;;5.00;1.93;;;;;;;4.36;100.00;99830.03;5013186;28;20026;-68
2021/01/19 08:16:25;;;;;;;4.57;2.13;;;;;;;4.36;100.00;99842.06;5014180;28;20652;-68
2021/01/19 08:19:03;;;;;;;6.83;3.03;;;;;;;4.36;100.00;99835.19;5013200;28;20042;-68
2021/01/19 08:21:37;;;;;;;4.97;2.50;;;;;;;4.36;100.00;99834.28;5013579;28;20283;-68
2021/01/19 08:24:07;;;;;;;4.10;2.30;;;;;;;4.34;100.00;99828.25;5013539;28;20675;-68
2021/01/19 08:26:33;;;;;;;21.50;2.60;;;;;;;4.37;100.00;99805.00;5014683;28;20660;-68
2021/01/19 08:29:01;;;;;;;6.97;2.40;;;;;;;4.38;100.00;99827.44;5013955;28;20277;-68
2021/01/19 08:31:31;;;;;;;5.33;2.73;;;;;;;4.41;100.00;99811.94;5013751;28;20101;-68
2021/01/19 08:34:00;;;;;;;4.20;2.07;;;;;;;4.42;100.00;99798.16;5012962;28;20276;-68
2021/01/19 08:36:28;;;;;;;4.23;2.23;;;;;;;4.44;100.00;99795.56;5014113;28;20320;-68
2021/01/19 08:38:58;;;;;;;5.27;2.53;;;;;;;4.41;100.00;99786.06;5012747;28;20284;-68
2021/01/19 08:41:24;;;;;;;4.40;1.87;;;;;;;4.45;100.00;99795.59;5013225;28;20284;-68
2021/01/19 08:43:54;;;;;;;4.37;2.37;;;;;;;4.46;100.00;99783.50;5012958;28;20276;-68
2021/01/19 08:46:20;;;;;;;4.63;2.20;;;;;;;4.48;100.00;99785.25;5012858;28;20350;-66
2021/01/19 08:48:47;;;;;;;4.30;1.93;;;;;;;4.48;100.00;99787.00;5013475;28;20276;-67
2021/01/19 08:51:25;;;;;;;4.97;2.00;;;;;;;4.51;100.00;99767.22;5012932;28;20017;-66
2021/01/19 08:53:52;;;;;;;4.77;2.07;;;;;;;4.52;100.00;99771.53;5012579;28;20260;-66
2021/01/19 08:56:25;;;;;;;4.47;1.83;;;;;;;4.49;100.00;99778.41;5012853;28;20633;-66
2021/01/19 08:58:52;;;;;;;4.77;2.07;;;;;;;4.50;100.00;99765.47;5012617;28;20756;-66
2021/01/19 09:01:18;;;;;;;4.30;1.83;;;;;;;4.51;100.00;99772.38;5012565;28;20260;-67
2021/01/19 09:03:56;;;;;;;3.73;1.90;;;;;;;4.49;100.00;99753.38;5019358;28;20271;-66
2021/01/19 09:06:22;;;;;;;4.40;1.97;;;;;;;4.50;100.00;99765.47;5032577;28;20275;-67
2021/01/19 09:08:56;;;;;;;2.60;1.37;;;;;;;4.50;100.00;99751.66;5014738;28;20352;-67
2021/01/19 09:11:28;;;;;;;4.50;2.37;;;;;;;4.48;100.00;99756.78;5012425;28;20252;-67
2021/01/19 09:14:14;;;;;;;;;;;;;;;4.48;100.00;99746.44;5025869;28;20617;-67
2021/01/19 09:16:39;;;;;;;4.73;2.07;;;;;;;4.45;100.00;99741.25;5032191;28;19948;-67
2021/01/19 09:19:07;;;;;;;6.03;2.57;;;;;;;4.45;100.00;99746.41;5013076;28;20321;-67
2021/01/19 09:21:35;;;;;;;4.83;1.63;;;;;;;4.49;100.00;99743.03;5012506;28;20472;-67
2021/01/19 09:24:00;;;;;;;6.23;2.43;;;;;;;4.48;100.00;99730.03;5011824;28;20273;-67
2021/01/19 09:26:26;;;;;;;3.77;1.67;;;;;;;4.58;100.00;99732.75;5011686;28;20272;-66
2021/01/19 09:28:52;;;;;;;4.23;1.77;;;;;;;4.55;100.00;99724.94;5013113;28;20097;-67
2021/01/19 09:31:21;;;;;;;5.10;2.53;;;;;;;4.53;100.00;99716.31;5012064;28;20030;-66
2021/01/19 09:33:49;;;;;;;5.10;2.43;;;;;;;4.53;100.00;99713.72;5011670;28;20344;-66
2021/01/19 09:36:15;;;;;;;5.33;2.43;;;;;;;4.53;100.00;99711.13;5012780;28;20335;-68
2021/01/19 09:38:46;;;;;;;5.07;2.07;;;;;;;4.62;100.00;99707.78;5011860;28;20288;-67
2021/01/19 09:41:17;;;;;;;3.33;1.30;;;;;;;4.64;100.00;99690.53;5011779;28;20280;-67
2021/01/19 09:43:50;;;;;;;3.40;1.77;;;;;;;4.61;100.00;99696.56;5011413;28;20296;-66
2021/01/19 09:46:17;;;;;;;5.03;2.13;;;;;;;4.57;100.00;99692.19;5011726;28;20279;-67
2021/01/19 09:48:46;;;;;;;3.57;1.47;;;;;;;4.60;100.00;99684.47;5012457;28;20265;-67
2021/01/19 09:51:11;;;;;;;4.07;1.73;;;;;;;4.57;100.00;99679.22;5010937;28;20276;-67
2021/01/19 09:53:36;;;;;;;7.07;2.27;;;;;;;4.57;100.00;99679.22;5010759;28;20338;-67
2021/01/19 09:56:17;;;;;;;3.50;1.80;;;;;;;4.63;100.00;99679.31;5011686;28;20109;-67
2021/01/19 09:58:43;;;;;;;4.47;1.83;;;;;;;4.62;100.00;99666.34;5011508;28;20033;-66
2021/01/19 10:01:19;;;;;;;5.03;2.27;;;;;;;4.63;100.00;99674.13;5011293;28;20879;-66
2021/01/19 10:03:44;;;;;;;4.43;2.47;;;;;;;4.60;100.00;99668.94;5025000;28;20275;-66
2021/01/19 10:06:10;;;;;;;6.33;2.30;;;;;;;4.63;100.00;99662.91;5018540;28;20264;-66
2021/01/19 10:08:40;;;;;;;6.30;2.93;;;;;;;4.61;100.00;99647.38;5012179;28;20024;-66
2021/01/19 10:11:06;;;;;;;5.13;2.77;;;;;;;4.70;100.00;99659.50;5011025;28;20057;-66
2021/01/19 10:13:33;;;;;;;4.73;2.40;;;;;;;4.74;100.00;99642.28;5011519;28;20360;-66
2021/01/19 10:16:09;;;;;;;5.87;2.27;;;;;;;4.70;100.00;99639.63;5011274;28;20041;-67
2021/01/19 10:18:35;;;;;;;4.27;2.17;;;;;;;4.73;100.00;99637.97;5010653;28;20291;-66
2021/01/19 10:21:00;;;;;;;6.47;2.83;;;;;;;4.69;100.00;99632.72;5010968;28;20359;-66
2021/01/19 10:23:29;;;;;;;4.67;2.20;;;;;;;4.72;100.00;99631.88;5010851;28;20178;-67
2021/01/19 10:26:05;;;;;;;4.37;2.17;;;;;;;4.77;100.00;99626.75;5011016;28;20033;-67
2021/01/19 10:28:38;;;;;;;6.50;2.50;;;;;;;4.71;100.00;99618.06;5011176;28;20275;-67
2021/01/19 10:31:44;;;;;;;5.10;2.47;;;;;;;4.80;100.00;99613.81;5010715;28;20312;-67
2021/01/19 10:34:14;;;;;;;5.27;2.40;;;;;;;4.81;100.00;99607.78;5029990;28;20280;-66
2021/01/19 10:36:51;;;;;;;3.23;1.73;;;;;;;4.85;100.00;99606.97;5012427;28;20279;-67
2021/01/19 10:39:16;;;;;;;4.70;2.30;;;;;;;4.87;100.00;99605.25;5010496;28;20330;-67
2021/01/19 10:41:42;;;;;;;4.30;2.30;;;;;;;4.91;100.00;99600.09;5010571;28;20269;-67
2021/01/19 10:44:11;;;;;;;5.43;2.70;;;;;;;4.93;100.00;99597.50;5010749;28;20102;-66
2021/01/19 10:46:36;;;;;;;5.03;2.60;;;;;;;4.94;100.00;99594.91;5011008;28;20033;-66
2021/01/19 10:49:09;;;;;;;4.00;2.13;;;;;;;4.95;100.00;99598.38;5010716;28;20672;-66
2021/01/19 10:51:36;;;;;;;5.70;3.00;;;;;;;4.94;100.00;99581.97;5010034;28;20028;-67
2021/01/19 10:54:06;;;;;;;5.90;2.43;;;;;;;4.99;100.00;99579.44;5009895;28;20272;-67
2021/01/19 10:56:32;;;;;;;4.07;2.17;;;;;;;5.06;100.00;99585.50;5013781;28;20264;-66
2021/01/19 10:58:57;;;;;;;5.03;2.03;;;;;;;5.07;100.00;99562.19;5029719;28;20295;-66
2021/01/19 11:01:25;;;;;;;5.67;2.87;;;;;;;5.04;100.00;99569.94;5027491;28;20034;-68
2021/01/19 11:03:50;;;;;;;8.40;3.13;;;;;;;5.10;100.00;99572.59;5017563;28;20033;-67
2021/01/19 11:06:16;;;;;;;6.30;2.67;;;;;;;5.16;100.00;99567.41;5028103;28;20260;-67
2021/01/19 11:08:41;;;;;;;4.50;1.93;;;;;;;5.22;100.00;99570.06;5009702;28;20489;-67
2021/01/19 11:11:10;;;;;;;4.77;2.50;;;;;;;5.24;100.00;99563.16;5010668;28;20079;-67
2021/01/19 11:13:35;;;;;;;4.73;1.93;;;;;;;5.28;100.00;99554.50;5010679;28;20057;-67
2021/01/19 11:16:01;;;;;;;3.97;1.80;;;;;;;5.29;100.00;99553.66;5009069;28;20319;-68
2021/01/19 11:18:26;;;;;;;5.37;2.40;;;;;;;5.34;100.00;99552.81;5009749;28;20485;-67
2021/01/19 11:20:52;;;;;;;2.53;1.47;;;;;;;5.37;100.00;99555.41;5014809;28;20091;-68
2021/01/19 11:23:17;;;;;;;4.10;2.17;;;;;;;5.38;100.00;99541.59;5026897;28;20080;-67
2021/01/19 11:25:43;;;;;;;3.93;2.00;;;;;;;5.45;100.00;99538.16;5010811;28;20396;-67
2021/01/19 11:28:08;;;;;;;4.97;2.10;;;;;;;5.45;100.00;99532.97;5009894;28;20041;-67
2021/01/19 11:30:33;;;;;;;5.27;2.13;;;;;;;5.52;100.00;99535.59;5010261;28;20024;-67
2021/01/19 11:32:59;;;;;;;4.17;1.77;;;;;;;5.56;100.00;99531.28;5008382;28;20111;-67
2021/01/19 11:35:25;;;;;;;3.40;1.70;;;;;;;5.66;100.00;99533.03;5009311;28;20029;-67